Time;durP1;ratioP1;P1;durP2;ratioP2;P2;SDS_P1;SDS_P2;PMS_P1;PMS_P2;Temp;Humidity;BMP_temperature;BMP_pressure;BME280_temperature;BME280_humidity;BME280_pressure;Samples;Min_cycle;Max_cycle;Signal;HPM_P1;HPM_P2
2023/04/29 00:00:06;;;;;;;33.10;17.70;;;;;;;9.08;100.00;101505.25;6098733;23;20458;-79
2023/04/29 00:02:39;;;;;;;34.03;18.10;;;;;;;9.07;100.00;101509.81;6099360;23;20046;-79
2023/04/29 00:05:08;;;;;;;30.65;17.90;;;;;;;9.06;100.00;101505.66;6099364;23;20720;-79
2023/04/29 00:07:35;;;;;;;30.10;17.58;;;;;;;9.05;100.00;101508.72;6099321;23;20018;-79
2023/04/29 00:10:03;;;;;;;33.17;17.73;;;;;;;9.02;100.00;101505.72;6099364;23;20394;-79
2023/04/29 00:12:30;;;;;;;26.85;16.40;;;;;;;9.06;100.00;101515.53;6098876;23;20086;-79
2023/04/29 00:14:57;;;;;;;37.65;18.60;;;;;;;9.05;100.00;101511.38;6099317;23;20427;-79
2023/04/29 00:17:24;;;;;;;32.25;18.00;;;;;;;9.06;100.00;101518.19;6099310;23;20067;-79
2023/04/29 00:19:50;;;;;;;30.60;17.15;;;;;;;9.02;100.00;101516.34;6099408;23;20078;-79
2023/04/29 00:22:17;;;;;;;32.45;19.45;;;;;;;9.03;100.00;101517.84;6099423;23;20015;-79
2023/04/29 00:24:44;;;;;;;33.45;17.92;;;;;;;9.04;100.00;101515.94;6099303;23;20015;-79
2023/04/29 00:27:10;;;;;;;27.35;16.70;;;;;;;9.03;100.00;101522.41;6049113;23;20082;-79
2023/04/29 00:29:37;;;;;;;36.75;18.77;;;;;;;9.01;100.00;101517.50;6099166;23;20019;-79
2023/04/29 00:32:04;;;;;;;34.35;18.73;;;;;;;8.99;100.00;101522.47;6099312;23;20015;-79
2023/04/29 00:34:30;;;;;;;32.33;18.63;;;;;;;9.00;100.00;101534.59;6073497;23;20023;-79
2023/04/29 00:36:57;;;;;;;28.80;18.02;;;;;;;8.99;100.00;101533.09;6099191;23;20105;-78
2023/04/29 00:39:23;;;;;;;35.75;18.08;;;;;;;8.99;100.00;101538.41;6073659;23;20090;-79
2023/04/29 00:41:51;;;;;;;33.65;17.90;;;;;;;8.97;100.00;101535.41;6073061;23;20436;-80
2023/04/29 00:44:18;;;;;;;31.88;18.23;;;;;;;8.97;100.00;101538.06;6099240;23;20014;-79
2023/04/29 00:46:44;;;;;;;32.97;17.92;;;;;;;8.99;100.00;101540.31;6100465;23;20019;-79
2023/04/29 00:49:12;;;;;;;36.50;19.27;;;;;;;8.97;100.00;101543.38;6074548;23;20030;-79
2023/04/29 00:51:41;;;;;;;32.92;18.17;;;;;;;8.96;100.00;101541.88;6074493;23;20402;-79
2023/04/29 00:54:09;;;;;;;31.73;19.17;;;;;;;8.95;100.00;101544.94;6100387;23;20098;-79
2023/04/29 00:56:38;;;;;;;33.75;17.00;;;;;;;8.93;100.00;101548.00;6073479;23;20023;-79
2023/04/29 00:59:08;;;;;;;36.08;17.40;;;;;;;8.92;100.00;101543.13;6099871;23;20082;-79
2023/04/29 01:01:35;;;;;;;30.65;18.17;;;;;;;8.93;100.00;101544.59;6100371;23;20038;-79
2023/04/29 01:04:04;;;;;;;28.42;17.35;;;;;;;8.91;100.00;101546.91;6050864;23;20026;-79
2023/04/29 01:06:46;;;;;;;27.48;16.50;;;;;;;8.93;100.00;101550.66;6100435;23;20166;-79
2023/04/29 01:09:28;;;;;;;24.55;17.27;;;;;;;8.93;100.00;101555.22;6100464;23;20019;-79
2023/04/29 01:12:21;;;;;;;29.10;16.15;;;;;;;8.96;100.00;101559.72;6074446;23;20023;-79
2023/04/29 01:14:59;;;;;;;26.25;15.65;;;;;;;8.91;100.00;101557.53;6100363;23;20357;-79
2023/04/29 01:17:36;;;;;;;24.27;15.57;;;;;;;8.89;100.00;101565.91;6075052;23;20539;-79
2023/04/29 01:20:05;;;;;;;22.65;14.50;;;;;;;8.89;100.00;101562.50;6074768;23;20496;-79
2023/04/29 01:22:32;;;;;;;27.73;16.00;;;;;;;8.87;100.00;101568.22;6074393;23;20441;-79
2023/04/29 01:24:59;;;;;;;28.83;16.27;;;;;;;8.87;100.00;101573.53;6073972;23;20386;-79
2023/04/29 01:27:30;;;;;;;25.98;15.88;;;;;;;8.86;100.00;101569.38;6074770;23;20050;-79
2023/04/29 01:30:20;;;;;;;32.17;16.15;;;;;;;8.85;100.00;101581.16;6074579;23;20019;-79
2023/04/29 01:33:09;;;;;;;27.20;16.35;;;;;;;8.84;100.00;101574.34;6074189;23;20465;-79
2023/04/29 01:35:51;;;;;;;28.83;16.02;;;;;;;8.84;100.00;101579.66;6074508;23;20449;-79
2023/04/29 01:38:35;;;;;;;27.23;16.10;;;;;;;8.84;100.00;101576.25;6100480;23;20021;-79
2023/04/29 01:41:13;;;;;;;23.70;15.70;;;;;;;8.83;100.00;101578.16;6099948;23;20058;-78
2023/04/29 01:43:42;;;;;;;30.85;15.57;;;;;;;8.85;100.00;101585.72;6074307;23;20019;-79
2023/04/29 01:46:18;;;;;;;26.75;15.02;;;;;;;8.83;100.00;101585.38;6074555;23;20015;-78
2023/04/29 01:48:45;;;;;;;27.45;16.25;;;;;;;8.83;100.00;101582.72;6074376;23;20027;-78
2023/04/29 01:51:12;;;;;;;29.63;16.13;;;;;;;8.84;100.00;101590.28;6074215;23;20023;-78
2023/04/29 01:53:39;;;;;;;32.70;17.30;;;;;;;8.81;100.00;101583.13;6073664;23;20014;-78
2023/04/29 01:56:07;;;;;;;27.92;16.45;;;;;;;8.84;100.00;101587.63;6073835;23;20031;-77
2023/04/29 01:58:54;;;;;;;25.77;15.73;;;;;;;8.83;100.00;101594.09;6099158;23;20445;-78
2023/04/29 02:01:32;;;;;;;26.75;16.27;;;;;;;8.84;100.00;101589.53;6048119;23;20366;-78
2023/04/29 02:04:01;;;;;;;28.48;15.68;;;;;;;8.85;100.00;101591.03;6045294;23;20076;-78
2023/04/29 02:06:30;;;;;;;25.98;15.18;;;;;;;8.85;100.00;101596.34;6045779;23;20076;-78
2023/04/29 02:09:00;;;;;;;25.42;15.68;;;;;;;8.84;100.00;101600.91;6044568;23;20019;-78
2023/04/29 02:11:26;;;;;;;22.77;16.00;;;;;;;8.83;100.00;101596.00;6071465;23;20020;-78
2023/04/29 02:13:56;;;;;;;26.23;15.82;;;;;;;8.83;100.00;101604.72;6044941;23;20078;-78
2023/04/29 02:16:22;;;;;;;26.45;14.75;;;;;;;8.84;100.00;101603.56;6045676;23;20019;-77
2023/04/29 02:18:56;;;;;;;28.67;15.98;;;;;;;8.86;100.00;101611.13;6045458;23;20446;-78
2023/04/29 02:21:22;;;;;;;24.27;14.60;;;;;;;8.87;100.00;101612.63;6045457;23;20411;-78
2023/04/29 02:23:50;;;;;;;24.33;14.75;;;;;;;8.87;100.00;101617.94;6044511;23;20492;-78
2023/04/29 02:26:16;;;;;;;30.15;14.80;;;;;;;8.87;100.00;101616.03;6071030;23;20019;-78
2023/04/29 02:28:43;;;;;;;26.02;14.68;;;;;;;8.86;100.00;101622.50;6021480;23;20125;-78
2023/04/29 02:31:09;;;;;;;21.60;13.05;;;;;;;8.86;100.00;101619.84;6045247;23;20091;-79
2023/04/29 02:33:36;;;;;;;23.17;14.00;;;;;;;8.87;100.00;101616.03;6045170;23;20431;-78
2023/04/29 02:36:03;;;;;;;20.65;14.20;;;;;;;8.86;100.00;101621.75;6045035;23;20023;-78
2023/04/29 02:38:29;;;;;;;21.17;13.35;;;;;;;8.87;100.00;101633.84;6070350;23;20020;-78
2023/04/29 02:40:56;;;;;;;19.27;12.68;;;;;;;8.87;100.00;101633.84;6070831;23;20027;-79
2023/04/29 02:43:22;;;;;;;19.63;12.05;;;;;;;8.87;100.00;101639.16;6045559;23;20024;-78
2023/04/29 02:45:49;;;;;;;21.33;12.90;;;;;;;8.87;100.00;101642.56;6070940;23;20041;-78
2023/04/29 02:48:16;;;;;;;17.73;12.63;;;;;;;8.87;100.00;101647.13;6045043;23;20023;-78
2023/04/29 02:50:42;;;;;;;25.13;12.77;;;;;;;8.87;100.00;101645.22;6045553;23;20110;-78
2023/04/29 02:53:09;;;;;;;18.00;12.70;;;;;;;8.88;100.00;101654.69;6020839;23;20030;-78
2023/04/29 02:55:35;;;;;;;19.20;11.98;;;;;;;8.89;100.00;101647.47;6044859;23;20121;-78
2023/04/29 02:58:06;;;;;;;17.85;12.40;;;;;;;8.89;100.00;101658.84;6022586;23;20027;-78
2023/04/29 03:00:33;;;;;;;20.05;12.40;;;;;;;8.89;100.00;101650.13;6063942;23;20038;-79
2023/04/29 03:03:00;;;;;;;17.52;12.45;;;;;;;8.90;100.00;101656.94;6073836;23;20105;-78
2023/04/29 03:05:27;;;;;;;24.58;12.70;;;;;;;8.88;100.00;101656.59;6074513;23;20015;-78
2023/04/29 03:07:54;;;;;;;26.00;12.70;;;;;;;8.89;100.00;101663.41;6072569;23;20041;-79
2023/04/29 03:10:21;;;;;;;20.95;12.13;;;;;;;8.89;100.00;101666.81;6100170;23;20026;-79
2023/04/29 03:12:47;;;;;;;20.88;13.20;;;;;;;8.89;100.00;101669.47;6073864;23;20018;-80
2023/04/29 03:15:14;;;;;;;25.30;13.30;;;;;;;8.89;100.00;101680.09;6099950;23;20019;-79
2023/04/29 03:17:41;;;;;;;20.90;12.75;;;;;;;8.89;100.00;101679.34;6073711;23;20019;-79
2023/04/29 03:20:09;;;;;;;22.70;12.32;;;;;;;8.88;100.00;101683.16;6073807;23;20435;-79
2023/04/29 03:22:36;;;;;;;24.75;12.93;;;;;;;8.88;100.00;101683.16;6073042;23;20015;-79
2023/04/29 03:25:03;;;;;;;19.63;12.50;;;;;;;8.87;100.00;101679.75;6099558;23;20041;-79
2023/04/29 03:27:30;;;;;;;21.00;12.63;;;;;;;8.88;99.99;101675.94;6073716;23;20023;-78
2023/04/29 03:29:56;;;;;;;22.90;14.20;;;;;;;8.86;99.68;101683.56;6073880;23;20086;-79
2023/04/29 03:32:23;;;;;;;21.10;13.07;;;;;;;8.87;99.16;101690.38;6100062;23;20022;-79
2023/04/29 03:34:50;;;;;;;18.33;12.80;;;;;;;8.84;98.95;101688.53;6073758;23;20465;-79
2023/04/29 03:37:46;;;;;;;22.60;13.15;;;;;;;8.86;98.23;101688.13;6079685;23;20075;-79
2023/04/29 03:40:21;;;;;;;18.75;12.90;;;;;;;8.86;97.89;101691.53;6074042;23;20480;-79
2023/04/29 03:42:49;;;;;;;19.85;12.32;;;;;;;8.86;97.59;101688.88;6097847;23;20085;-79
2023/04/29 03:45:16;;;;;;;24.90;13.60;;;;;;;8.86;97.01;101699.50;6073505;23;20019;-79
2023/04/29 03:47:43;;;;;;;18.75;12.98;;;;;;;8.86;97.19;101696.84;6073453;23;20019;-79
2023/04/29 03:50:10;;;;;;;24.55;14.50;;;;;;;8.87;96.50;101697.59;6073057;23;20109;-79
2023/04/29 03:52:38;;;;;;;21.85;14.02;;;;;;;8.85;96.19;101705.97;6073448;23;20030;-79
2023/04/29 03:55:10;;;;;;;;;;;;;;;8.87;96.21;101706.31;6074317;23;20462;-79
2023/04/29 03:57:37;;;;;;;21.55;13.48;;;;;;;8.86;96.05;101714.66;6073563;23;19996;-79
2023/04/29 04:00:08;;;;;;;20.05;12.73;;;;;;;8.86;95.87;101707.47;6068147;23;20055;-79
2023/04/29 04:02:46;;;;;;;18.13;12.95;;;;;;;8.85;95.14;101716.56;6068725;23;20079;-79
2023/04/29 04:05:14;;;;;;;22.02;14.35;;;;;;;8.86;95.29;101718.06;6068166;23;20016;-79
2023/04/29 04:07:46;;;;;;;22.58;13.93;;;;;;;8.85;94.98;101713.91;6068493;23;20102;-79
2023/04/29 04:10:33;;;;;;;17.63;12.52;;;;;;;8.86;95.02;101717.31;6069970;23;20032;-79
2023/04/29 04:13:03;;;;;;;21.92;13.15;;;;;;;8.85;94.40;101721.88;6068441;23;20369;-79
2023/04/29 04:15:31;;;;;;;19.05;12.88;;;;;;;8.86;94.27;101718.06;6068398;23;20079;-79
2023/04/29 04:17:58;;;;;;;17.67;12.75;;;;;;;8.85;94.34;101727.19;6068505;23;20155;-80
2023/04/29 04:20:24;;;;;;;18.95;13.07;;;;;;;8.86;93.90;101728.69;6071563;23;20407;-79
2023/04/29 04:22:53;;;;;;;16.50;12.98;;;;;;;8.87;94.40;101732.09;6069862;23;20020;-79
2023/04/29 04:25:27;;;;;;;21.63;13.10;;;;;;;8.85;94.29;101734.41;6070484;23;20016;-79
2023/04/29 04:27:59;;;;;;;17.83;12.38;;;;;;;8.84;94.15;101725.69;6069938;23;20090;-79
2023/04/29 04:30:46;;;;;;;15.38;11.52;;;;;;;8.85;93.84;101729.84;6069425;23;20024;-79
2023/04/29 04:33:14;;;;;;;20.30;11.70;;;;;;;8.86;93.29;101734.00;6070793;23;20019;-79
2023/04/29 04:35:43;;;;;;;18.05;11.95;;;;;;;8.86;93.14;101741.97;6069624;23;20027;-79
2023/04/29 04:38:10;;;;;;;15.52;11.65;;;;;;;8.88;92.99;101741.56;6069738;23;20326;-79
2023/04/29 04:40:40;;;;;;;14.80;11.48;;;;;;;8.88;93.19;101744.22;6069489;23;20083;-79
2023/04/29 04:43:20;;;;;;;16.77;12.07;;;;;;;8.88;93.12;101737.00;6069868;23;20136;-78
2023/04/29 04:45:47;;;;;;;18.88;11.60;;;;;;;8.87;93.38;101751.44;6045983;23;20477;-79
2023/04/29 04:48:14;;;;;;;15.13;11.10;;;;;;;8.88;93.49;101752.19;6069118;23;20087;-79
2023/04/29 04:50:42;;;;;;;16.17;11.85;;;;;;;8.90;93.45;101761.25;6069554;23;20059;-79
2023/04/29 04:53:08;;;;;;;15.80;11.80;;;;;;;8.92;93.74;101768.81;6069684;23;20103;-79
2023/04/29 04:55:51;;;;;;;15.75;11.52;;;;;;;8.93;93.51;101768.44;6048733;23;20079;-79
2023/04/29 04:58:18;;;;;;;16.73;12.45;;;;;;;8.93;93.66;101776.41;6069561;23;20366;-79
2023/04/29 05:00:45;;;;;;;17.92;11.30;;;;;;;8.94;93.91;101777.91;6069223;23;20055;-79
2023/04/29 05:03:12;;;;;;;20.02;11.95;;;;;;;8.96;93.62;101778.25;6070914;23;20102;-79
2023/04/29 05:05:38;;;;;;;19.52;11.13;;;;;;;8.98;93.71;101785.81;6069856;23;20020;-79
2023/04/29 05:08:05;;;;;;;16.27;11.70;;;;;;;9.00;93.75;101788.81;6069438;23;20041;-79
2023/04/29 05:10:42;;;;;;;16.08;11.40;;;;;;;9.03;93.53;101783.44;6070225;23;20035;-79
2023/04/29 05:13:10;;;;;;;16.17;11.68;;;;;;;9.07;93.51;101798.59;6069225;23;20047;-79
2023/04/29 05:15:38;;;;;;;17.83;11.98;;;;;;;9.09;93.82;101793.63;6069423;23;20031;-79
2023/04/29 05:18:06;;;;;;;18.73;11.32;;;;;;;9.13;93.81;101797.72;6068640;23;20031;-79
2023/04/29 05:20:33;;;;;;;19.70;11.70;;;;;;;9.16;93.38;101802.25;6045708;23;20023;-78
2023/04/29 05:23:01;;;;;;;16.02;11.23;;;;;;;9.19;93.57;101800.69;6069373;23;20079;-79
2023/04/29 05:25:31;;;;;;;18.42;10.45;;;;;;;9.23;93.12;101804.00;6045992;23;20035;-78
2023/04/29 05:27:58;;;;;;;13.15;10.60;;;;;;;9.28;93.25;101806.22;6069186;23;20019;-79
2023/04/29 05:30:28;;;;;;;15.80;12.13;;;;;;;9.34;93.20;101805.34;6069322;23;20495;-79
2023/04/29 05:32:55;;;;;;;17.90;11.27;;;;;;;9.48;92.77;101808.94;6070921;23;20019;-79
2023/04/29 05:35:22;;;;;;;16.50;11.43;;;;;;;9.51;92.43;101816.84;6071874;23;20509;-78
2023/04/29 05:37:48;;;;;;;14.55;10.38;;;;;;;9.57;92.83;101815.25;6069317;23;20025;-78
2023/04/29 05:40:35;;;;;;;16.48;10.75;;;;;;;9.64;92.14;101819.66;6069594;23;20458;-78
2023/04/29 05:43:39;;;;;;;14.13;10.65;;;;;;;9.69;92.34;101819.19;6069436;23;20128;-79
2023/04/29 05:46:06;;;;;;;18.77;11.45;;;;;;;9.84;92.63;101825.78;6069016;23;20358;-79
2023/04/29 05:48:33;;;;;;;18.35;12.07;;;;;;;10.12;90.96;101821.06;6069355;23;20039;-79
2023/04/29 05:50:59;;;;;;;14.90;11.02;;;;;;;10.17;90.26;101829.31;6069491;23;20474;-79
2023/04/29 05:53:26;;;;;;;20.83;12.27;;;;;;;10.25;89.75;101837.94;6069900;23;20471;-78
2023/04/29 05:55:52;;;;;;;15.13;11.40;;;;;;;10.46;89.05;101836.75;6069053;23;20027;-79
2023/04/29 05:58:20;;;;;;;24.60;11.52;;;;;;;10.62;88.84;101837.56;6071361;23;20429;-79
2023/04/29 06:00:48;;;;;;;16.25;11.75;;;;;;;11.20;87.69;101837.03;6070956;23;20083;-79
2023/04/29 06:03:19;;;;;;;19.95;11.77;;;;;;;11.87;83.55;101850.66;6043728;23;20033;-78
2023/04/29 06:05:51;;;;;;;16.80;11.82;;;;;;;11.64;84.02;101848.91;6043848;23;20023;-78
2023/04/29 06:08:47;;;;;;;17.05;11.50;;;;;;;11.56;83.71;101850.28;6055840;23;20062;-79
2023/04/29 06:11:18;;;;;;;21.48;12.07;;;;;;;11.48;84.01;101857.69;6044403;23;20051;-78
2023/04/29 06:13:44;;;;;;;18.05;11.43;;;;;;;11.29;84.63;101853.19;6046246;23;20027;-78
2023/04/29 06:16:11;;;;;;;19.40;12.23;;;;;;;11.22;84.93;101869.34;6021704;23;20431;-78
2023/04/29 06:18:38;;;;;;;19.77;12.10;;;;;;;11.11;85.48;101866.94;6072388;23;20015;-77
2023/04/29 06:21:05;;;;;;;15.40;12.30;;;;;;;11.08;85.64;101867.03;6046245;23;20023;-78
2023/04/29 06:23:31;;;;;;;16.52;11.88;;;;;;;11.08;85.69;101873.09;6046309;23;20023;-78
2023/04/29 06:26:01;;;;;;;15.48;12.20;;;;;;;11.09;85.50;101873.84;6022896;23;20030;-78
2023/04/29 06:28:28;;;;;;;19.25;11.85;;;;;;;11.09;86.16;101881.84;6072263;23;20027;-80
2023/04/29 06:30:55;;;;;;;18.10;10.85;;;;;;;11.07;86.19;101878.84;6045940;23;20509;-78
2023/04/29 06:33:22;;;;;;;21.27;11.18;;;;;;;11.03;85.44;101884.25;6071858;23;20534;-79
2023/04/29 06:35:49;;;;;;;18.42;12.23;;;;;;;11.04;85.65;101885.75;6072161;23;20051;-79
2023/04/29 06:38:40;;;;;;;22.02;12.27;;;;;;;11.00;86.46;101885.84;6046324;23;20027;-78
2023/04/29 06:41:27;;;;;;;20.83;11.23;;;;;;;11.07;85.95;101892.94;6071385;23;20474;-77
2023/04/29 06:44:12;;;;;;;22.77;11.23;;;;;;;11.06;85.47;101902.09;6070938;23;20027;-77
2023/04/29 06:47:04;;;;;;;15.52;11.43;;;;;;;11.00;84.88;101909.06;6048709;23;20019;-79
2023/04/29 06:49:52;;;;;;;18.17;11.57;;;;;;;10.95;84.83;101918.28;6072060;23;20019;-77
2023/04/29 06:52:20;;;;;;;21.88;10.90;;;;;;;11.00;85.08;101928.47;6045773;23;20059;-77
2023/04/29 06:54:47;;;;;;;19.05;11.48;;;;;;;10.99;83.64;101920.88;6046182;23;20071;-79
2023/04/29 06:57:13;;;;;;;18.45;10.63;;;;;;;10.97;84.06;101917.88;6045750;23;20083;-75
2023/04/29 06:59:40;;;;;;;17.73;11.93;;;;;;;11.10;84.04;101926.00;6079602;23;20072;-78
2023/04/29 07:02:07;;;;;;;16.58;11.05;;;;;;;11.22;82.98;101928.75;6100940;23;20433;-80
2023/04/29 07:04:33;;;;;;;17.50;10.95;;;;;;;11.27;82.22;101928.25;6101268;23;20019;-79
2023/04/29 07:07:00;;;;;;;18.00;11.70;;;;;;;11.34;82.22;101938.00;6100800;23;20019;-78
2023/04/29 07:09:26;;;;;;;17.17;10.43;;;;;;;11.43;81.92;101937.44;6100969;23;20018;-79
2023/04/29 07:11:53;;;;;;;19.08;11.00;;;;;;;11.47;81.43;101938.09;6101092;23;20023;-79
2023/04/29 07:14:23;;;;;;;17.55;11.20;;;;;;;11.42;81.11;101946.59;6100211;23;20098;-79
2023/04/29 07:16:53;;;;;;;13.48;10.23;;;;;;;11.43;81.55;101948.09;6075279;23;20023;-78
2023/04/29 07:19:20;;;;;;;16.25;9.90;;;;;;;11.58;80.71;101943.94;6074813;23;20472;-79
2023/04/29 07:21:46;;;;;;;15.75;10.55;;;;;;;11.78;79.46;101959.88;6075137;23;20027;-79
2023/04/29 07:24:13;;;;;;;18.48;11.50;;;;;;;11.93;79.75;101963.72;6100585;23;20057;-78
2023/04/29 07:26:42;;;;;;;15.10;10.55;;;;;;;12.15;78.29;101966.59;6100912;23;20613;-78
2023/04/29 07:29:08;;;;;;;13.00;10.00;;;;;;;12.21;78.33;101963.00;6073626;23;20483;-78
2023/04/29 07:31:35;;;;;;;14.32;10.13;;;;;;;12.28;77.76;101967.41;6100812;23;20019;-79
2023/04/29 07:34:04;;;;;;;14.65;10.13;;;;;;;12.31;78.20;101971.91;6074335;23;20019;-80
2023/04/29 07:36:31;;;;;;;15.27;9.57;;;;;;;12.26;77.56;101972.41;6074786;23;20023;-79
2023/04/29 07:38:58;;;;;;;13.20;9.23;;;;;;;12.17;76.88;101975.69;6074273;23;20018;-78
2023/04/29 07:41:26;;;;;;;18.33;9.77;;;;;;;12.19;76.41;101984.03;6074247;23;20027;-82
2023/04/29 07:43:52;;;;;;;10.70;9.02;;;;;;;12.32;75.71;101974.16;6074682;23;20352;-79
2023/04/29 07:46:19;;;;;;;14.77;9.32;;;;;;;12.49;75.60;101976.75;6100272;23;20087;-78
2023/04/29 07:48:45;;;;;;;10.05;7.85;;;;;;;12.78;74.05;101982.09;6100298;23;20079;-79
2023/04/29 07:51:13;;;;;;;10.70;7.68;;;;;;;12.74;72.37;101987.53;6074459;23;20361;-79
2023/04/29 07:53:41;;;;;;;11.23;8.63;;;;;;;12.83;72.82;101986.91;6074533;23;20525;-79
2023/04/29 07:56:08;;;;;;;9.77;7.65;;;;;;;13.11;71.77;101996.06;6099584;23;20454;-79
2023/04/29 07:58:34;;;;;;;11.13;7.68;;;;;;;13.15;70.72;102000.13;6100518;23;20019;-79
2023/04/29 08:01:09;;;;;;;13.38;8.60;;;;;;;13.14;70.41;101992.53;6069299;23;20034;-79
2023/04/29 08:03:36;;;;;;;13.13;7.88;;;;;;;13.35;70.24;102006.03;6071855;23;20043;-79
2023/04/29 08:06:07;;;;;;;10.38;7.50;;;;;;;13.33;69.01;102000.34;6045603;23;20020;-80
2023/04/29 08:08:34;;;;;;;9.98;7.82;;;;;;;13.53;68.50;102004.75;6071656;23;20078;-79
2023/04/29 08:11:00;;;;;;;9.88;7.47;;;;;;;13.84;67.37;102011.03;6044597;23;20051;-80
2023/04/29 08:13:27;;;;;;;7.28;6.53;;;;;;;13.85;66.50;102004.50;6045592;23;20473;-80
2023/04/29 08:15:54;;;;;;;9.20;7.22;;;;;;;13.82;67.01;102016.06;6045645;23;20028;-80
2023/04/29 08:18:20;;;;;;;7.97;7.22;;;;;;;13.64;65.57;102018.53;6071248;23;20020;-80
2023/04/29 08:20:51;;;;;;;10.27;6.75;;;;;;;13.52;65.71;102025.41;6071516;23;20027;-81
2023/04/29 08:23:17;;;;;;;8.85;7.03;;;;;;;13.31;66.76;102026.03;6071130;23;20542;-80
2023/04/29 08:25:43;;;;;;;8.10;6.43;;;;;;;13.30;66.69;102025.28;6070941;23;20035;-79
2023/04/29 08:28:10;;;;;;;7.38;6.55;;;;;;;13.71;65.84;102022.94;6071247;23;20055;-80
2023/04/29 08:30:40;;;;;;;9.20;6.85;;;;;;;14.02;65.17;102027.25;6071182;23;20102;-79
2023/04/29 08:33:07;;;;;;;7.88;6.60;;;;;;;14.56;64.86;102017.47;6070832;23;20043;-79
2023/04/29 08:35:37;;;;;;;9.52;6.90;;;;;;;14.90;62.41;102022.00;6071460;23;20022;-79
2023/04/29 08:38:05;;;;;;;8.73;7.00;;;;;;;15.40;63.62;102020.91;6070848;23;20055;-79
2023/04/29 08:40:44;;;;;;;7.20;6.60;;;;;;;15.88;62.92;102029.44;6070840;23;20023;-79
2023/04/29 08:43:15;;;;;;;7.30;6.63;;;;;;;15.75;60.53;102028.78;6071011;23;20019;-79
2023/04/29 08:45:42;;;;;;;11.32;7.10;;;;;;;15.33;59.89;102038.03;6071425;23;20042;-79
2023/04/29 08:48:09;;;;;;;8.23;6.38;;;;;;;14.86;60.91;102032.84;6045047;23;20465;-80
2023/04/29 08:50:39;;;;;;;8.15;6.55;;;;;;;14.48;61.82;102043.00;6071538;23;20023;-79
2023/04/29 08:53:07;;;;;;;9.18;6.22;;;;;;;14.34;61.62;102036.94;6070894;23;20026;-79
2023/04/29 08:55:41;;;;;;;9.77;7.00;;;;;;;14.86;61.77;102035.53;6070600;23;20416;-80
2023/04/29 08:58:09;;;;;;;6.85;5.85;;;;;;;15.42;60.59;102037.31;6045938;23;20531;-84
2023/04/29 09:00:36;;;;;;;6.15;5.55;;;;;;;15.76;60.32;102041.03;6091550;23;20094;-84
2023/04/29 09:03:21;;;;;;;6.63;5.93;;;;;;;15.93;57.90;102043.03;6099687;23;20420;-81
2023/04/29 09:05:52;;;;;;;8.50;6.40;;;;;;;15.94;57.30;102051.81;6100694;23;20102;-80
2023/04/29 09:08:21;;;;;;;9.45;6.63;;;;;;;15.95;57.01;102048.69;6101171;23;20067;-80
2023/04/29 09:10:49;;;;;;;8.93;6.50;;;;;;;16.11;56.97;102044.22;6076224;23;20026;-81
2023/04/29 09:13:29;;;;;;;10.45;6.60;;;;;;;15.93;57.49;102053.75;6101163;23;20011;-81
2023/04/29 09:15:56;;;;;;;8.73;6.63;;;;;;;15.72;57.96;102053.84;6101411;23;20022;-80
2023/04/29 09:18:46;;;;;;;7.22;6.43;;;;;;;15.85;58.84;102052.53;6101289;23;20026;-79
2023/04/29 09:21:18;;;;;;;8.95;6.43;;;;;;;15.90;56.88;102072.69;6074190;23;20023;-84
2023/04/29 09:23:50;;;;;;;9.23;6.78;;;;;;;16.03;57.06;102065.25;6099200;23;20019;-81
2023/04/29 09:26:17;;;;;;;12.27;10.35;;;;;;;16.22;56.17;102061.41;6098608;23;20019;-81
2023/04/29 09:28:44;;;;;;;8.10;6.35;;;;;;;15.95;56.57;102064.81;6100825;23;20022;-80
2023/04/29 09:31:12;;;;;;;9.30;6.65;;;;;;;15.74;56.99;102072.94;6100927;23;20084;-82
2023/04/29 09:33:56;;;;;;;6.78;6.07;;;;;;;15.75;57.33;102077.88;6099972;23;20082;-79
2023/04/29 09:36:46;;;;;;;9.93;6.20;;;;;;;16.20;57.25;102074.53;6075569;23;20525;-80
2023/04/29 09:39:23;;;;;;;9.18;6.28;;;;;;;16.41;55.83;102077.53;6074913;23;20101;-83
2023/04/29 09:41:52;;;;;;;7.03;5.97;;;;;;;16.67;55.33;102074.13;6075528;23;20022;-79
2023/04/29 09:44:26;;;;;;;6.50;5.90;;;;;;;16.99;55.40;102080.81;6100817;23;20416;-80
2023/04/29 09:47:04;;;;;;;6.28;5.55;;;;;;;17.31;55.16;102087.44;6101424;23;20509;-80
2023/04/29 09:49:44;;;;;;;7.13;5.68;;;;;;;17.44;54.45;102083.81;6101240;23;20015;-80
2023/04/29 09:52:11;;;;;;;6.15;5.55;;;;;;;17.45;52.19;102088.00;6100631;23;20019;-81
2023/04/29 09:54:39;;;;;;;5.25;4.93;;;;;;;17.29;52.12;102091.78;6101179;23;20018;-83
2023/04/29 09:57:08;;;;;;;6.22;5.63;;;;;;;17.16;52.75;102093.94;6100573;23;20023;-82
2023/04/29 09:59:37;;;;;;;5.60;5.03;;;;;;;17.16;52.53;102092.00;6101000;23;20355;-80
2023/04/29 10:02:14;;;;;;;5.60;5.10;;;;;;;16.87;53.32;102083.66;6100987;23;20019;-82
2023/04/29 10:04:43;;;;;;;6.95;5.00;;;;;;;17.02;51.18;102087.22;6101216;23;20023;-80
2023/04/29 10:07:13;;;;;;;7.22;5.13;;;;;;;17.38;52.44;102086.38;6100197;23;20019;-81
2023/04/29 10:09:40;;;;;;;6.32;5.55;;;;;;;17.42;51.60;102086.22;6101179;23;20025;-79
2023/04/29 10:12:07;;;;;;;8.90;5.38;;;;;;;17.50;52.81;102077.38;6100774;23;20030;-81
2023/04/29 10:14:54;;;;;;;6.07;5.57;;;;;;;17.39;51.49;102079.06;6101146;23;20011;-82
2023/04/29 10:17:35;;;;;;;8.05;5.47;;;;;;;16.83;53.49;102091.88;6100792;23;20517;-81
2023/04/29 10:20:07;;;;;;;8.48;5.30;;;;;;;17.23;53.03;102090.91;6100796;23;20026;-82
2023/04/29 10:22:48;;;;;;;7.32;5.65;;;;;;;17.50;51.96;102088.13;6100712;23;20079;-80
2023/04/29 10:25:17;;;;;;;7.53;5.43;;;;;;;17.54;51.53;102083.34;6100679;23;20213;-80
2023/04/29 10:27:45;;;;;;;5.85;5.05;;;;;;;17.93;51.95;102086.91;6101144;23;20019;-80
2023/04/29 10:30:13;;;;;;;5.93;5.05;;;;;;;17.97;50.37;102090.19;6100705;23;20119;-81
2023/04/29 10:32:40;;;;;;;8.57;5.63;;;;;;;17.81;50.37;102095.19;6101048;23;20027;-80
2023/04/29 10:35:19;;;;;;;6.43;4.72;;;;;;;18.13;50.36;102093.66;6100812;23;20025;-83
2023/04/29 10:37:47;;;;;;;5.93;5.15;;;;;;;18.37;49.29;102090.97;6100640;23;20059;-81
2023/04/29 10:40:28;;;;;;;11.90;5.05;;;;;;;18.65;49.39;102093.00;6100772;23;20062;-79
2023/04/29 10:42:55;;;;;;;6.88;5.32;;;;;;;18.50;47.26;102094.88;6101038;23;20023;-81
2023/04/29 10:45:26;;;;;;;6.93;5.00;;;;;;;18.62;47.90;102095.88;6100991;23;20015;-80
2023/04/29 10:48:12;;;;;;;5.20;4.70;;;;;;;18.82;48.54;102104.06;6101245;23;20082;-79
2023/04/29 10:50:47;;;;;;;5.22;4.82;;;;;;;18.82;48.31;102104.06;6100580;23;20019;-79
2023/04/29 10:53:16;;;;;;;5.85;4.68;;;;;;;18.52;46.63;102094.41;6100813;23;20029;-79
2023/04/29 10:55:46;;;;;;;5.28;4.65;;;;;;;18.86;48.21;102096.53;6101028;23;20022;-79
2023/04/29 10:58:35;;;;;;;5.80;4.78;;;;;;;18.88;48.32;102096.81;6100608;23;20022;-78
2023/04/29 11:01:02;;;;;;;5.72;4.60;;;;;;;18.56;47.05;102100.38;6099100;23;20059;-79
2023/04/29 11:03:58;;;;;;;5.55;4.22;;;;;;;18.75;47.67;102093.66;6099217;23;20485;-79
2023/04/29 11:06:40;;;;;;;4.32;3.92;;;;;;;18.84;47.04;102084.72;6098869;23;20011;-79
2023/04/29 11:09:11;;;;;;;4.40;4.10;;;;;;;18.98;45.73;102084.00;6099425;23;20070;-79
2023/04/29 11:11:45;;;;;;;7.57;4.25;;;;;;;18.62;47.09;102102.00;6073897;23;20454;-79
2023/04/29 11:14:13;;;;;;;6.15;4.78;;;;;;;18.19;47.49;102099.91;6098994;23;20453;-79
2023/04/29 11:16:48;;;;;;;5.18;4.82;;;;;;;18.42;47.61;102098.38;6100557;23;20055;-79
2023/04/29 11:19:16;;;;;;;7.82;5.28;;;;;;;18.58;47.43;102101.41;6100126;23;20446;-79
2023/04/29 11:21:45;;;;;;;5.30;4.70;;;;;;;18.58;46.50;102100.66;6075172;23;20438;-79
2023/04/29 11:24:14;;;;;;;5.25;4.80;;;;;;;18.14;47.60;102095.16;6100788;23;20047;-79
2023/04/29 11:26:42;;;;;;;4.97;4.50;;;;;;;18.53;47.34;102099.34;6100951;23;20026;-79
2023/04/29 11:29:11;;;;;;;5.03;4.55;;;;;;;18.76;45.26;102089.75;6099961;23;20078;-79
2023/04/29 11:31:38;;;;;;;6.55;4.97;;;;;;;18.91;46.15;102098.59;6100932;23;20022;-79